Aérodrome :
LOGIN :

S'inscrire | Disclaimer

   EN    FR    IT 

 










Légende :    VFR   VFR Marginal   IFR   IFR Intensif   IFR Très Intensif
Visi : 
Plafond : 
>= 8 km
>= 3000ft
5 à 8 km
1000 à 3000 ft
1500m à 5 km
500 à 1000 ft
800 à 1500m
200 à 500 ft
< 800m
< 200 ft
Symboles :   Orages  Brouillard  Fortes neiges  Fortes précipitations  Vent > 20 kt
SIGMETs :   Divers  Orages  Givrage  Turbulence  Onde Orograph.  Cendres Volcan.






- Altitude de l'aérodrome : 194 ft
- Code IATA : IEG


EPZG - Zielona Gora Babimost

DERNIER METAR :
  • 031030Z 09006KT 0900 R24/0900U +SN VV008 M02/M02 Q1010

METARs EXPIRÉS :
  • 031000Z 09004KT 1100 R24/1000N SN BR VV006 M02/M03 Q1011
  • 030930Z 09004KT 1100 R24/1000N SN BR VV007 M02/M03 Q1011
  • 030900Z 10004KT 1300 R24/1300N SN BR VV012 M02/M03 Q1011
  • 030830Z 10004KT 3200 -SN BR FEW022 M02/M04 Q1012

TAF AMD TAF EPZG
Valide du 03 à 10h jusqu'au 03 à 18h UTC


031043Z 0310/0318 11008KT 3000 SN BR BKN008
TEMPO 0310/0313 0800 +SN BKN003
BECMG 0313/0315 6000 NSW BKN012



MET'MAP, la Météo Aéronautique d'un coup d'oeil ! - Copyright ORBIFLY Décembre 2007 - Disclaimer

ORBIFLY MET'MAP TEAM :

Programmation & Développement : Alexandra Zaïnal
Sur une idée originale de : Baudouin d'Aumeries
Assistance à la programmation : Marc-Olivier Méhu
Soutien technique & logistique : Manuel Goepfert

Contact : metmap@orbifly.com




SOURCES & CREDITS :

   NOAA